createdAt,value
2019-04-11T00:01:54.796Z,42.20
2019-04-11T00:06:49.899Z,41.60
2019-04-11T00:11:44.602Z,41.87
2019-04-11T00:16:39.486Z,41.80
2019-04-11T00:21:34.968Z,40.17
2019-04-11T00:26:30.576Z,42.23
2019-04-11T00:31:25.303Z,42.10
2019-04-11T00:36:20.115Z,40.90
2019-04-11T00:41:15.479Z,40.23
2019-04-11T00:46:10.493Z,39.43
2019-04-11T00:51:05.268Z,39.53
2019-04-11T00:55:59.934Z,38.27
2019-04-11T01:00:55.565Z,37.70
2019-04-11T01:05:50.373Z,36.87
2019-04-11T01:10:45.649Z,36.70
2019-04-11T01:15:42.813Z,36.37
2019-04-11T01:20:37.747Z,35.90
2019-04-11T01:25:32.714Z,35.47
2019-04-11T01:30:33.532Z,36.33
2019-04-11T01:35:28.988Z,35.17
2019-04-11T01:40:23.747Z,34.27
2019-04-11T01:45:21.218Z,32.27
2019-04-11T01:50:17.582Z,33.07
2019-04-11T01:55:12.613Z,34.23
2019-04-11T02:00:10.880Z,33.47
2019-04-11T02:05:16.752Z,32.73
2019-04-11T02:10:13.021Z,33.53
2019-04-11T02:15:10.188Z,33.20
2019-04-11T02:20:09.111Z,34.80
2019-04-11T02:25:12.275Z,34.67
2019-04-11T02:30:11.202Z,35.83
2019-04-11T02:35:08.476Z,37.70
2019-04-11T02:40:05.413Z,37.30
2019-04-11T02:45:18.063Z,36.03
2019-04-11T02:49:59.148Z,35.03
2019-04-11T02:54:54.510Z,35.13
2019-04-11T02:59:51.141Z,34.83
2019-04-11T03:04:47.958Z,33.93
2019-04-11T03:09:44.067Z,33.33
2019-04-11T03:15:01.047Z,33.83
2019-04-11T03:19:47.629Z,32.03
2019-04-11T03:24:35.230Z,31.83
2019-04-11T03:29:30.510Z,32.07
2019-04-11T03:35:17.004Z,31.87
2019-04-11T03:39:48.972Z,30.77
2019-04-11T03:44:25.431Z,29.23
2019-04-11T03:49:27.847Z,31.93
2019-04-11T03:54:13.684Z,30.00
2019-04-11T03:59:13.692Z,31.63
2019-04-11T04:04:06.622Z,30.73
2019-04-11T04:09:02.748Z,30.97
2019-04-11T04:14:02.178Z,31.37
2019-04-11T04:19:11.726Z,30.80
2019-04-11T04:24:08.617Z,31.17
2019-04-11T04:29:04.443Z,29.87
2019-04-11T04:33:59.647Z,30.13
2019-04-11T04:38:57.168Z,29.43
2019-04-11T04:43:52.894Z,30.13
2019-04-11T04:48:51.019Z,29.37
2019-04-11T04:53:45.297Z,28.00
2019-04-11T04:58:42.007Z,29.60
2019-04-11T05:03:37.899Z,28.97
2019-04-11T05:08:34.574Z,28.90
2019-04-11T05:13:30.195Z,29.17
2019-04-11T05:18:25.882Z,25.63
2019-04-11T05:23:21.409Z,27.10
2019-04-11T05:28:16.147Z,26.30
2019-04-11T05:33:11.614Z,25.80
2019-04-11T05:38:06.656Z,24.23
2019-04-11T05:43:01.818Z,24.60
2019-04-11T05:47:58.321Z,24.43
2019-04-11T05:52:54.585Z,24.07
2019-04-11T05:57:50.629Z,23.40
2019-04-11T06:02:47.081Z,25.07
2019-04-11T06:07:55.955Z,23.13
2019-04-11T06:12:51.154Z,23.63
2019-04-11T06:17:48.174Z,22.37
2019-04-11T06:22:45.597Z,21.77
2019-04-11T06:27:42.814Z,22.80
2019-04-11T06:32:38.385Z,21.70
2019-04-11T06:37:41.341Z,22.27
2019-04-11T06:42:47.867Z,21.47
2019-04-11T06:47:47.594Z,22.30
2019-04-11T06:52:45.145Z,20.47
2019-04-11T06:57:42.425Z,22.10
2019-04-11T07:02:38.980Z,23.57
2019-04-11T07:07:35.657Z,23.30
2019-04-11T07:12:35.682Z,22.93
2019-04-11T07:17:48.505Z,20.83
2019-04-11T07:23:01.595Z,22.50
2019-04-11T07:28:10.599Z,22.73
2019-04-11T07:33:24.351Z,21.43
2019-04-11T07:38:22.819Z,22.20
2019-04-11T07:43:19.526Z,22.37
2019-04-11T07:48:22.056Z,21.80
2019-04-11T07:53:19.626Z,24.20
2019-04-11T07:58:23.790Z,22.40
2019-04-11T08:03:26.023Z,23.60
2019-04-11T08:08:26.565Z,23.33
2019-04-11T08:13:40.952Z,24.27
2019-04-11T08:18:46.109Z,23.97
2019-04-11T08:23:43.545Z,25.67
2019-04-11T08:28:39.313Z,25.60
2019-04-11T08:33:35.007Z,23.67
2019-04-11T08:38:32.238Z,25.10
2019-04-11T08:43:37.465Z,23.97
2019-04-11T08:48:35.055Z,23.27
2019-04-11T08:53:48.992Z,23.20
2019-04-11T08:59:09.098Z,22.97
2019-04-11T09:04:09.997Z,24.17
2019-04-11T09:09:11.249Z,24.10
2019-04-11T09:14:15.751Z,22.50
2019-04-11T09:19:18.843Z,24.07
2019-04-11T09:24:30.534Z,23.43
2019-04-11T09:29:36.140Z,22.23
2019-04-11T09:34:35.654Z,22.07
2019-04-11T09:39:39.238Z,22.87
2019-04-11T09:44:39.299Z,22.77
2019-04-11T09:49:37.608Z,22.10
2019-04-11T09:54:50.606Z,22.27
2019-04-11T10:00:01.829Z,22.03
2019-04-11T10:04:59.986Z,22.47
2019-04-11T10:10:02.593Z,21.07
2019-04-11T10:14:57.734Z,23.00
2019-04-11T10:19:56.140Z,22.67
2019-04-11T10:25:01.567Z,23.57
2019-04-11T10:30:00.929Z,22.97
2019-04-11T10:35:00.167Z,23.40
2019-04-11T10:40:17.722Z,24.23
2019-04-11T10:45:32.395Z,24.70
2019-04-11T10:50:42.377Z,25.90
2019-04-11T10:55:49.623Z,25.13
2019-04-11T11:00:48.749Z,25.27
2019-04-11T11:05:45.115Z,25.90
2019-04-11T11:10:40.460Z,25.33
2019-04-11T11:15:36.230Z,25.13
2019-04-11T11:20:55.745Z,25.10
2019-04-11T11:25:53.396Z,26.33
2019-04-11T11:30:49.719Z,26.87
2019-04-11T11:35:50.266Z,28.23
2019-04-11T11:41:03.869Z,26.30
2019-04-11T11:46:00.959Z,26.17
2019-04-11T11:50:57.091Z,27.17
2019-04-11T11:55:53.622Z,25.77
2019-04-11T12:00:56.133Z,27.83
2019-04-11T12:05:53.754Z,27.10
2019-04-11T12:10:51.441Z,30.07
2019-04-11T12:15:51.143Z,28.83
2019-04-11T12:20:51.295Z,30.13
2019-04-11T12:25:47.641Z,29.67
2019-04-11T12:30:44.159Z,28.97
2019-04-11T12:35:58.939Z,30.23
2019-04-11T12:41:10.993Z,28.80
2019-04-11T12:46:29.759Z,29.70
2019-04-11T12:51:21.674Z,28.27
2019-04-11T12:56:34.048Z,31.67
2019-04-11T13:01:42.596Z,29.27
2019-04-11T13:06:40.133Z,30.67
2019-04-11T13:11:46.510Z,31.77
2019-04-11T13:16:48.744Z,30.33
2019-04-11T13:21:45.664Z,32.27
2019-04-11T13:27:09.834Z,31.33
2019-04-11T13:32:30.757Z,31.07
2019-04-11T13:37:51.914Z,32.07
2019-04-11T13:43:04.702Z,31.50
2019-04-11T13:48:06.880Z,31.77
2019-04-11T13:53:19.276Z,32.27
2019-04-11T13:58:15.679Z,33.00
2019-04-11T14:03:17.435Z,32.17
2019-04-11T14:08:17.970Z,32.33
2019-04-11T14:13:13.298Z,32.97
2019-04-11T14:18:15.739Z,33.43
2019-04-11T14:23:18.135Z,31.40
2019-04-11T14:28:17.339Z,32.27
2019-04-11T14:33:12.230Z,32.60
2019-04-11T14:38:11.617Z,31.50
2019-04-11T14:43:13.629Z,31.83
2019-04-11T14:48:19.774Z,31.93
2019-04-11T14:53:29.598Z,33.17
2019-04-11T14:58:32.110Z,33.53
2019-04-11T15:03:31.289Z,33.77
2019-04-11T15:08:38.678Z,33.53
2019-04-11T15:13:34.274Z,33.20
2019-04-11T15:18:29.579Z,33.03
2019-04-11T15:23:26.380Z,34.03
2019-04-11T15:28:25.741Z,34.50
2019-04-11T15:33:20.339Z,35.70
2019-04-11T15:38:35.249Z,35.60
2019-04-11T15:43:47.824Z,37.20
2019-04-11T15:48:42.267Z,36.20
2019-04-11T15:53:45.523Z,37.47
2019-04-11T15:58:47.515Z,38.63
2019-04-11T16:03:42.172Z,37.63
2019-04-11T16:08:39.518Z,38.50
2019-04-11T16:13:42.524Z,36.67
2019-04-11T16:18:41.566Z,40.20
2019-04-11T16:23:47.698Z,40.10
2019-04-11T16:28:59.768Z,38.00
2019-04-11T16:34:07.746Z,37.77
2019-04-11T16:39:02.162Z,39.10
2019-04-11T16:44:10.678Z,37.30
2019-04-11T16:49:05.464Z,38.07
2019-04-11T16:54:00.107Z,35.40
2019-04-11T16:58:54.739Z,36.00
2019-04-11T17:03:49.398Z,34.60
2019-04-11T17:08:45.725Z,35.13
2019-04-11T17:13:40.374Z,36.00
2019-04-11T17:18:35.118Z,33.77
2019-04-11T17:23:29.853Z,35.47
2019-04-11T17:28:24.516Z,32.70
2019-04-11T17:33:19.222Z,34.43
2019-04-11T17:38:13.855Z,34.70
2019-04-11T17:43:08.577Z,35.17
2019-04-11T17:48:03.343Z,33.70
2019-04-11T17:52:58.153Z,34.33
2019-04-11T17:57:54.907Z,33.73
2019-04-11T18:02:49.244Z,33.57
2019-04-11T18:07:47.096Z,34.37
2019-04-11T18:12:40.424Z,33.37
2019-04-11T18:17:35.574Z,32.83
2019-04-11T18:22:30.416Z,34.13
2019-04-11T18:27:25.265Z,33.73
2019-04-11T18:32:19.979Z,31.87
2019-04-11T18:37:14.629Z,35.03
2019-04-11T18:42:09.404Z,34.93
2019-04-11T18:47:04.192Z,34.97
2019-04-11T18:51:58.835Z,33.77
2019-04-11T18:56:53.720Z,37.20
2019-04-11T19:01:48.529Z,35.47
2019-04-11T19:06:43.698Z,35.97
2019-04-11T19:11:38.731Z,36.13
2019-04-11T19:16:33.378Z,37.57
2019-04-11T19:21:28.080Z,36.53
2019-04-11T19:26:23.114Z,37.83
2019-04-11T19:31:17.804Z,39.03
2019-04-11T19:36:12.898Z,36.97
2019-04-11T19:41:07.791Z,35.47
2019-04-11T19:46:02.554Z,37.13
2019-04-11T19:50:58.990Z,36.00
2019-04-11T19:55:58.144Z,36.93
2019-04-11T20:00:53.872Z,35.27
2019-04-11T20:05:48.854Z,36.63
2019-04-11T20:10:44.383Z,38.60
2019-04-11T20:16:41.459Z,42.93
2019-04-11T20:21:30.492Z,37.10
2019-04-11T20:26:25.166Z,37.23
2019-04-11T20:31:19.716Z,36.60
2019-04-11T20:36:14.285Z,34.90
2019-04-11T20:41:09.547Z,35.73
2019-04-11T20:46:04.357Z,33.23
2019-04-11T20:50:59.065Z,35.97
2019-04-11T20:55:53.637Z,34.03
2019-04-11T21:00:50.652Z,31.77
2019-04-11T21:05:44.529Z,33.03
2019-04-11T21:10:39.089Z,32.03
2019-04-11T21:15:33.655Z,31.93
2019-04-11T21:20:28.217Z,30.27
2019-04-11T21:25:22.800Z,30.00
2019-04-11T21:30:17.587Z,29.17
2019-04-11T21:35:12.324Z,27.40
2019-04-11T21:40:08.423Z,27.40
2019-04-11T21:45:05.936Z,27.27
2019-04-11T21:49:59.396Z,26.60
2019-04-11T21:54:53.991Z,27.63
2019-04-11T21:59:51.279Z,25.97
2019-04-11T22:04:44.857Z,25.67
2019-04-11T22:09:39.479Z,25.57
2019-04-11T22:14:34.058Z,26.30
2019-04-11T22:19:33.513Z,25.83
2019-04-11T22:24:33.136Z,25.97
2019-04-11T22:29:32.808Z,26.93
2019-04-11T22:34:34.109Z,28.10
2019-04-11T22:39:31.489Z,29.10
2019-04-11T22:44:25.552Z,28.00
2019-04-11T22:49:21.118Z,31.43
2019-04-11T22:54:15.686Z,28.10
2019-04-11T22:59:13.745Z,30.60
2019-04-11T23:04:06.564Z,31.30
2019-04-11T23:09:01.104Z,29.77
2019-04-11T23:13:55.839Z,30.70
2019-04-11T23:18:50.404Z,29.47
2019-04-11T23:23:46.338Z,31.73
2019-04-11T23:28:46.736Z,29.00
2019-04-11T23:33:41.251Z,25.83
2019-04-11T23:38:39.227Z,26.20
2019-04-11T23:43:41.100Z,26.37
2019-04-11T23:48:35.896Z,25.33
2019-04-11T23:53:39.337Z,27.47
2019-04-11T23:58:39.404Z,27.07
